sensor_id;sensor_type;location;lat;lon;timestamp;pressure;altitude;pressure_sealevel;temperature;humidity
32330;BME280;18807;52.434;13.238;2023-04-23T00:02:56;75255.38;;;-142.05;47.48
32330;BME280;18807;52.434;13.238;2023-04-23T00:10:30;75251.31;;;-142.05;47.60
32330;BME280;18807;52.434;13.238;2023-04-23T00:18:06;75249.28;;;-142.05;47.94
32330;BME280;18807;52.434;13.238;2023-04-23T00:25:40;75249.28;;;-142.05;47.44
32330;BME280;18807;52.434;13.238;2023-04-23T00:33:15;75251.31;;;-142.05;48.52
32330;BME280;18807;52.434;13.238;2023-04-23T00:40:49;75249.28;;;-142.05;49.32
32330;BME280;18807;52.434;13.238;2023-04-23T00:48:24;75249.28;;;-142.05;49.85
32330;BME280;18807;52.434;13.238;2023-04-23T00:55:58;75251.31;;;-142.05;50.47
32330;BME280;18807;52.434;13.238;2023-04-23T01:03:35;75253.34;;;-142.05;51.18
32330;BME280;18807;52.434;13.238;2023-04-23T01:11:12;75247.22;;;-142.05;52.00
32330;BME280;18807;52.434;13.238;2023-04-23T01:18:48;75261.50;;;-142.05;55.29
32330;BME280;18807;52.434;13.238;2023-04-23T01:26:24;75265.59;;;-142.05;58.61
32330;BME280;18807;52.434;13.238;2023-04-23T01:33:59;75279.88;;;-142.05;62.37
32330;BME280;18807;52.434;13.238;2023-04-23T01:41:34;75286.00;;;-142.05;66.81
32330;BME280;18807;52.434;13.238;2023-04-23T01:49:09;75290.06;;;-142.05;72.06
32330;BME280;18807;52.434;13.238;2023-04-23T01:56:44;75281.91;;;-142.05;74.58
32330;BME280;18807;52.434;13.238;2023-04-23T02:04:19;75298.25;;;-142.05;81.19
32330;BME280;18807;52.434;13.238;2023-04-23T02:11:54;75310.47;;;-142.05;84.61
32330;BME280;18807;52.434;13.238;2023-04-23T02:19:29;75324.78;;;-142.05;91.82
32330;BME280;18807;52.434;13.238;2023-04-23T02:27:07;75328.84;;;-142.05;98.41
32330;BME280;18807;52.434;13.238;2023-04-23T02:34:42;75337.00;;;-142.05;99.04
32330;BME280;18807;52.434;13.238;2023-04-23T02:42:17;75332.94;;;-142.05;100.00
32330;BME280;18807;52.434;13.238;2023-04-23T02:49:51;75326.81;;;-142.05;100.00
32330;BME280;18807;52.434;13.238;2023-04-23T02:57:27;75318.66;;;-142.05;100.00
32330;BME280;18807;52.434;13.238;2023-04-23T03:05:01;75322.72;;;-142.05;100.00
32330;BME280;18807;52.434;13.238;2023-04-23T03:12:36;75322.72;;;-142.05;100.00
32330;BME280;18807;52.434;13.238;2023-04-23T03:20:11;75322.72;;;-142.05;100.00
32330;BME280;18807;52.434;13.238;2023-04-23T03:27:46;75316.59;;;-142.05;100.00
32330;BME280;18807;52.434;13.238;2023-04-23T03:35:20;75316.59;;;-142.05;100.00
32330;BME280;18807;52.434;13.238;2023-04-23T03:42:55;75324.78;;;-142.05;100.00
32330;BME280;18807;52.434;13.238;2023-04-23T03:50:29;75332.94;;;-142.05;100.00
32330;BME280;18807;52.434;13.238;2023-04-23T03:58:24;75324.78;;;-142.05;100.00
32330;BME280;18807;52.434;13.238;2023-04-23T04:05:58;75318.66;;;-142.05;100.00
32330;BME280;18807;52.434;13.238;2023-04-23T04:13:34;75322.72;;;-142.05;100.00
32330;BME280;18807;52.434;13.238;2023-04-23T04:21:08;75316.59;;;-142.05;100.00
32330;BME280;18807;52.434;13.238;2023-04-23T04:28:43;75322.72;;;-142.05;100.00
32330;BME280;18807;52.434;13.238;2023-04-23T04:36:18;75328.84;;;-142.05;100.00
32330;BME280;18807;52.434;13.238;2023-04-23T04:43:53;75345.16;;;-142.05;100.00
32330;BME280;18807;52.434;13.238;2023-04-23T04:51:27;75361.50;;;-142.05;100.00
32330;BME280;18807;52.434;13.238;2023-04-23T04:59:03;75355.38;;;-142.05;100.00
32330;BME280;18807;52.434;13.238;2023-04-23T05:06:37;75365.56;;;-142.05;100.00
32330;BME280;18807;52.434;13.238;2023-04-23T05:14:13;75361.50;;;-142.05;100.00
32330;BME280;18807;52.434;13.238;2023-04-23T05:21:47;75365.56;;;-142.05;100.00
32330;BME280;18807;52.434;13.238;2023-04-23T05:29:41;75363.53;;;-142.05;100.00
32330;BME280;18807;52.434;13.238;2023-04-23T05:37:14;75359.47;;;-142.05;100.00
32330;BME280;18807;52.434;13.238;2023-04-23T05:44:50;75355.38;;;-142.05;100.00
32330;BME280;18807;52.434;13.238;2023-04-23T05:52:24;75349.25;;;-142.05;100.00
32330;BME280;18807;52.434;13.238;2023-04-23T05:59:59;75351.28;;;-142.05;100.00
32330;BME280;18807;52.434;13.238;2023-04-23T06:07:37;75341.09;;;-142.05;100.00
32330;BME280;18807;52.434;13.238;2023-04-23T06:15:17;75330.88;;;-142.05;100.00
32330;BME280;18807;52.434;13.238;2023-04-23T06:22:52;75326.81;;;-142.05;100.00
32330;BME280;18807;52.434;13.238;2023-04-23T06:30:49;75320.69;;;-142.05;100.00
32330;BME280;18807;52.434;13.238;2023-04-23T06:38:34;75322.72;;;-142.05;100.00
32330;BME280;18807;52.434;13.238;2023-04-23T06:46:09;75320.69;;;-142.05;100.00
32330;BME280;18807;52.434;13.238;2023-04-23T06:53:43;75322.72;;;-142.05;100.00
32330;BME280;18807;52.434;13.238;2023-04-23T07:01:23;75330.88;;;-142.05;100.00
32330;BME280;18807;52.434;13.238;2023-04-23T07:08:59;75332.94;;;-142.05;100.00
32330;BME280;18807;52.434;13.238;2023-04-23T07:16:35;75328.84;;;-142.05;100.00
32330;BME280;18807;52.434;13.238;2023-04-23T07:24:26;75324.78;;;-142.05;100.00
32330;BME280;18807;52.434;13.238;2023-04-23T07:32:02;75328.84;;;-142.05;100.00
32330;BME280;18807;52.434;13.238;2023-04-23T07:39:36;75326.81;;;-142.05;100.00
32330;BME280;18807;52.434;13.238;2023-04-23T07:47:14;75332.94;;;-142.05;100.00
32330;BME280;18807;52.434;13.238;2023-04-23T07:54:49;75337.00;;;-142.05;100.00
32330;BME280;18807;52.434;13.238;2023-04-23T08:02:25;75322.72;;;-142.05;100.00
32330;BME280;18807;52.434;13.238;2023-04-23T08:09:59;75314.56;;;-142.05;100.00
32330;BME280;18807;52.434;13.238;2023-04-23T08:17:38;75308.44;;;-142.05;100.00
32330;BME280;18807;52.434;13.238;2023-04-23T08:25:30;75292.13;;;-142.05;100.00
32330;BME280;18807;52.434;13.238;2023-04-23T08:33:22;75271.72;;;-142.05;100.00
32330;BME280;18807;52.434;13.238;2023-04-23T08:40:58;75277.84;;;-142.05;100.00
32330;BME280;18807;52.434;13.238;2023-04-23T08:48:34;75277.84;;;-142.05;100.00
32330;BME280;18807;52.434;13.238;2023-04-23T08:56:08;75294.16;;;-142.05;100.00
32330;BME280;18807;52.434;13.238;2023-04-23T09:03:44;75308.44;;;-142.05;100.00
32330;BME280;18807;52.434;13.238;2023-04-23T09:11:19;75322.72;;;-142.05;100.00
32330;BME280;18807;52.434;13.238;2023-04-23T09:18:57;75343.13;;;-142.05;100.00
32330;BME280;18807;52.434;13.238;2023-04-23T09:26:51;75365.56;;;-142.05;100.00
32330;BME280;18807;52.434;13.238;2023-04-23T09:34:27;75420.66;;;-142.05;100.00
32330;BME280;18807;52.434;13.238;2023-04-23T09:42:04;75457.41;;;-142.05;100.00
32330;BME280;18807;52.434;13.238;2023-04-23T09:49:48;75473.72;;;-142.05;100.00
32330;BME280;18807;52.434;13.238;2023-04-23T09:57:23;75498.22;;;-142.05;100.00
32330;BME280;18807;52.434;13.238;2023-04-23T10:05:17;75520.66;;;-142.05;100.00
32330;BME280;18807;52.434;13.238;2023-04-23T10:12:58;75524.75;;;-142.05;100.00
32330;BME280;18807;52.434;13.238;2023-04-23T10:20:34;75526.78;;;-142.05;100.00
32330;BME280;18807;52.434;13.238;2023-04-23T10:28:10;75502.28;;;-142.05;100.00
32330;BME280;18807;52.434;13.238;2023-04-23T10:35:47;75488.00;;;-142.05;100.00
32330;BME280;18807;52.434;13.238;2023-04-23T10:43:22;75471.69;;;-142.05;100.00
32330;BME280;18807;52.434;13.238;2023-04-23T10:50:58;75453.31;;;-142.05;100.00
32330;BME280;18807;52.434;13.238;2023-04-23T10:58:53;75457.41;;;-142.05;100.00
32330;BME280;18807;52.434;13.238;2023-04-23T11:06:50;75424.75;;;-142.05;100.00
32330;BME280;18807;52.434;13.238;2023-04-23T11:14:40;75428.84;;;-142.05;100.00
32330;BME280;18807;52.434;13.238;2023-04-23T11:22:43;75426.78;;;-142.05;100.00
32330;BME280;18807;52.434;13.238;2023-04-23T11:30:36;75424.75;;;-142.05;100.00
32330;BME280;18807;52.434;13.238;2023-04-23T11:38:12;75404.34;;;-142.05;100.00
32330;BME280;18807;52.434;13.238;2023-04-23T11:45:45;75365.56;;;-142.05;100.00
32330;BME280;18807;52.434;13.238;2023-04-23T11:53:22;75369.66;;;-142.05;91.67
32330;BME280;18807;52.434;13.238;2023-04-23T12:00:56;75347.22;;;-142.05;79.41
32330;BME280;18807;52.434;13.238;2023-04-23T12:08:33;75310.47;;;-142.05;86.01
32330;BME280;18807;52.434;13.238;2023-04-23T12:16:09;75316.59;;;-142.05;67.75
32330;BME280;18807;52.434;13.238;2023-04-23T12:23:44;75283.97;;;-142.05;66.38
32330;BME280;18807;52.434;13.238;2023-04-23T12:31:25;75241.09;;;-142.05;60.41
32330;BME280;18807;52.434;13.238;2023-04-23T12:39:35;75171.72;;;-142.05;58.88
32330;BME280;18807;52.434;13.238;2023-04-23T12:47:09;75126.84;;;-142.05;54.93
32330;BME280;18807;52.434;13.238;2023-04-23T12:54:45;75124.81;;;-142.05;52.78
32330;BME280;18807;52.434;13.238;2023-04-23T13:02:24;75116.66;;;-142.05;56.78
32330;BME280;18807;52.434;13.238;2023-04-23T13:09:59;75069.72;;;-142.05;55.18
32330;BME280;18807;52.434;13.238;2023-04-23T13:17:33;75079.91;;;-142.05;55.89
32330;BME280;18807;52.434;13.238;2023-04-23T13:25:09;75041.16;;;-142.05;55.03
32330;BME280;18807;52.434;13.238;2023-04-23T13:32:43;75012.59;;;-142.05;54.60
32330;BME280;18807;52.434;13.238;2023-04-23T13:40:18;74984.03;;;-142.05;55.05
32330;BME280;18807;52.434;13.238;2023-04-23T13:47:52;74996.25;;;-142.05;55.05
32330;BME280;18807;52.434;13.238;2023-04-23T13:55:29;74975.88;;;-142.05;54.53
32330;BME280;18807;52.434;13.238;2023-04-23T14:03:03;74947.28;;;-142.05;55.15
32330;BME280;18807;52.434;13.238;2023-04-23T14:10:39;74947.28;;;-142.05;54.27
32330;BME280;18807;52.434;13.238;2023-04-23T14:18:15;74928.94;;;-142.05;53.40
32330;BME280;18807;52.434;13.238;2023-04-23T14:25:52;74863.66;;;-142.05;51.95
32330;BME280;18807;52.434;13.238;2023-04-23T14:33:30;74804.47;;;-142.05;51.08
32330;BME280;18807;52.434;13.238;2023-04-23T14:41:06;74796.31;;;-142.05;49.02
32330;BME280;18807;52.434;13.238;2023-04-23T14:48:39;74696.34;;;-142.05;46.54
32330;BME280;18807;52.434;13.238;2023-04-23T14:56:15;74645.34;;;-142.05;46.84
32330;BME280;18807;52.434;13.238;2023-04-23T15:03:49;74633.13;;;-142.05;42.75
32330;BME280;18807;52.434;13.238;2023-04-23T15:11:24;74696.34;;;-142.05;43.34
32330;BME280;18807;52.434;13.238;2023-04-23T15:19:00;74631.06;;;-142.05;43.38
32330;BME280;18807;52.434;13.238;2023-04-23T15:26:36;74584.16;;;-142.05;41.90
32330;BME280;18807;52.434;13.238;2023-04-23T15:34:10;74527.03;;;-142.05;41.76
32330;BME280;18807;52.434;13.238;2023-04-23T15:41:45;74598.44;;;-142.05;40.39
32330;BME280;18807;52.434;13.238;2023-04-23T15:49:19;74590.28;;;-142.05;40.39
32330;BME280;18807;52.434;13.238;2023-04-23T15:56:54;74608.63;;;-142.05;40.52
32330;BME280;18807;52.434;13.238;2023-04-23T16:04:28;74608.63;;;-142.05;41.26
32330;BME280;18807;52.434;13.238;2023-04-23T16:12:04;74641.28;;;-142.05;42.22
32330;BME280;18807;52.434;13.238;2023-04-23T16:19:42;74698.41;;;-142.05;44.25
32330;BME280;18807;52.434;13.238;2023-04-23T16:27:17;74733.06;;;-142.05;46.28
32330;BME280;18807;52.434;13.238;2023-04-23T16:34:52;74708.59;;;-142.05;46.41
32330;BME280;18807;52.434;13.238;2023-04-23T16:42:27;74741.25;;;-142.05;47.06
32330;BME280;18807;52.434;13.238;2023-04-23T16:50:01;74780.00;;;-142.05;47.43
32330;BME280;18807;52.434;13.238;2023-04-23T16:57:37;74798.38;;;-142.05;48.54
32330;BME280;18807;52.434;13.238;2023-04-23T17:05:11;74818.75;;;-142.05;49.31
32330;BME280;18807;52.434;13.238;2023-04-23T17:12:46;74826.94;;;-142.05;50.46
32330;BME280;18807;52.434;13.238;2023-04-23T17:20:21;74835.09;;;-142.05;50.74
32330;BME280;18807;52.434;13.238;2023-04-23T17:27:57;74818.75;;;-142.05;50.33
32330;BME280;18807;52.434;13.238;2023-04-23T17:35:30;74812.66;;;-142.05;50.62
32330;BME280;18807;52.434;13.238;2023-04-23T17:43:06;74812.66;;;-142.05;51.46
32330;BME280;18807;52.434;13.238;2023-04-23T17:50:40;74822.84;;;-142.05;51.25
32330;BME280;18807;52.434;13.238;2023-04-23T17:58:16;74835.09;;;-142.05;50.73
32330;BME280;18807;52.434;13.238;2023-04-23T18:05:50;74869.78;;;-142.05;52.04
32330;BME280;18807;52.434;13.238;2023-04-23T18:13:26;74896.28;;;-142.05;54.43
32330;BME280;18807;52.434;13.238;2023-04-23T18:21:00;74920.78;;;-142.05;56.33
32330;BME280;18807;52.434;13.238;2023-04-23T18:28:36;74935.06;;;-142.05;58.45
32330;BME280;18807;52.434;13.238;2023-04-23T18:36:19;74981.97;;;-142.05;60.25
32330;BME280;18807;52.434;13.238;2023-04-23T18:43:55;75010.53;;;-142.05;61.98
32330;BME280;18807;52.434;13.238;2023-04-23T18:51:36;75037.06;;;-142.05;63.95
32330;BME280;18807;52.434;13.238;2023-04-23T18:59:23;75055.44;;;-142.05;66.63
32330;BME280;18807;52.434;13.238;2023-04-23T19:06:57;75090.13;;;-142.05;67.34
32330;BME280;18807;52.434;13.238;2023-04-23T19:14:34;75110.53;;;-142.05;70.05
32330;BME280;18807;52.434;13.238;2023-04-23T19:22:08;75139.09;;;-142.05;70.42
32330;BME280;18807;52.434;13.238;2023-04-23T19:29:44;75155.41;;;-142.05;71.97
32330;BME280;18807;52.434;13.238;2023-04-23T19:37:24;75167.66;;;-142.05;73.43
32330;BME280;18807;52.434;13.238;2023-04-23T19:45:00;75181.94;;;-142.05;75.27
32330;BME280;18807;52.434;13.238;2023-04-23T19:52:35;75206.41;;;-142.05;76.87
32330;BME280;18807;52.434;13.238;2023-04-23T20:00:12;75224.78;;;-142.05;77.66
32330;BME280;18807;52.434;13.238;2023-04-23T20:07:46;75251.31;;;-142.05;79.27
32330;BME280;18807;52.434;13.238;2023-04-23T20:15:21;75271.72;;;-142.05;80.93
32330;BME280;18807;52.434;13.238;2023-04-23T20:23:14;75294.16;;;-142.05;82.95
32330;BME280;18807;52.434;13.238;2023-04-23T20:30:50;75300.28;;;-142.05;83.94
32330;BME280;18807;52.434;13.238;2023-04-23T20:38:24;75310.47;;;-142.05;85.32
32330;BME280;18807;52.434;13.238;2023-04-23T20:46:03;75310.47;;;-142.05;87.89
32330;BME280;18807;52.434;13.238;2023-04-23T20:53:38;75314.56;;;-142.05;85.98
32330;BME280;18807;52.434;13.238;2023-04-23T21:01:13;75326.81;;;-142.05;87.29
32330;BME280;18807;52.434;13.238;2023-04-23T21:09:04;75328.84;;;-142.05;88.80
32330;BME280;18807;52.434;13.238;2023-04-23T21:16:40;75312.53;;;-142.05;82.29
32330;BME280;18807;52.434;13.238;2023-04-23T21:24:13;75277.84;;;-142.05;78.67
32330;BME280;18807;52.434;13.238;2023-04-23T21:31:50;75259.47;;;-142.05;75.99
32330;BME280;18807;52.434;13.238;2023-04-23T21:39:25;75251.31;;;-142.05;75.29
32330;BME280;18807;52.434;13.238;2023-04-23T21:47:02;75257.44;;;-142.05;75.70
32330;BME280;18807;52.434;13.238;2023-04-23T21:54:36;75263.56;;;-142.05;76.34
32330;BME280;18807;52.434;13.238;2023-04-23T22:02:11;75261.50;;;-142.05;76.22
32330;BME280;18807;52.434;13.238;2023-04-23T22:09:45;75275.78;;;-142.05;76.62
32330;BME280;18807;52.434;13.238;2023-04-23T22:17:21;75277.84;;;-142.05;76.40
32330;BME280;18807;52.434;13.238;2023-04-23T22:24:57;75288.03;;;-142.05;77.67
32330;BME280;18807;52.434;13.238;2023-04-23T22:32:33;75298.25;;;-142.05;78.63
32330;BME280;18807;52.434;13.238;2023-04-23T22:40:08;75310.47;;;-142.05;80.46
32330;BME280;18807;52.434;13.238;2023-04-23T22:47:44;75316.59;;;-142.05;83.39
32330;BME280;18807;52.434;13.238;2023-04-23T22:55:18;75308.44;;;-142.05;85.20
32330;BME280;18807;52.434;13.238;2023-04-23T23:02:54;75298.25;;;-142.05;85.35
32330;BME280;18807;52.434;13.238;2023-04-23T23:10:28;75294.16;;;-142.05;86.69
32330;BME280;18807;52.434;13.238;2023-04-23T23:18:03;75302.31;;;-142.05;88.33
32330;BME280;18807;52.434;13.238;2023-04-23T23:25:39;75304.38;;;-142.05;91.06
32330;BME280;18807;52.434;13.238;2023-04-23T23:33:14;75320.69;;;-142.05;98.05
32330;BME280;18807;52.434;13.238;2023-04-23T23:40:48;75328.84;;;-142.05;100.00
32330;BME280;18807;52.434;13.238;2023-04-23T23:48:25;75318.66;;;-142.05;100.00
32330;BME280;18807;52.434;13.238;2023-04-23T23:55:59;75310.47;;;-142.05;100.00
